Guthrie, Texas
Current Conditions -  °F | °C
As of 8:53 PM on Tuesday 21 Oct 2014 (Local Time) from KCDS Reporting Station
Clear Clear  
Wind Chill: 66°   Ceiling: Unl
Heat Index: 66°   Visibility: 10mi
Dew Point: 49°   Wind: 7mph
Humidity: 54%   Direction: 150°SSE
Pressure: 30.05"   Gusts: NA
Location:  33.62°N, 100.32°W
Report Text: KCDS 220153Z AUTO 15006KT 10SM CLR 19/09 A3005 RMK AO2 SLP159 T01890094
Loading
Personal Weather Stations






























Interactive Weather Map
Tropical Storm Tracking
New forecast layout! Learn more

10-Day Weather Forecast

Advertisements
Track Severe Weather on mobile